Whiting Field Naval Air Station North Airport
KNSE : now visible

Airfield :











YOU CAN JOIN US ON...

 
LOGIN :

Register | Disclaimer

   EN    FR    IT 

 









Legend :    VFR   Marginal VFR   IFR   Intensive IFR   Very Intensive IFR
Visi :
Ceiling :
>= 8 km
>= 3000ft
5 to 8 km
1000 to 3000 ft
1500m to 5 km
500 to 1000 ft
800 to 1500m
200 to 500 ft
< 800m
< 200 ft
Symbols :   Thunderstorms  Fog  Heavy snow  Heavy precipitations  Wind > 20 kt






- Airport Elevation : 199 ft


KNSE - Whiting Field Naval Air Station North

CURRENT METAR :
  • 180456Z AUTO 13004KT 1/2SM FG VV002 16/16 A3008 RMK AO2 SLP173 T01610161 $

EXPIRED METARs :
  • 180418Z AUTO 13006KT 3/4SM BR OVC002 16/16 A3007 RMK AO2 T01610156 $
  • 180410Z AUTO 14005KT 2 1/2SM BR OVC003 16/16 A3008 RMK AO2 T01610156 $
  • 180356Z AUTO 13004KT 10SM OVC004 16/16 A3008 RMK AO2 SLP172 T01610156 $
  • 180333Z AUTO 13004KT 10SM OVC004 16/15 A3008 RMK AO2 T01610150 $
  • 180256Z AUTO 12003KT 10SM BKN007 BKN085 16/15 A3008 RMK AO2 CIG 005V010 SLP173 T01610150 51007 $

TAF TAF KNSE
Valid from the 17 at 23:00 until the 18 at 23:00 UTC


1723/1823 16007KT 9999 VCSH BKN006 BKN015 OVC030 QNH2999INS
BECMG 1807/1809 1600 BR VCSH OVC005 QNH3003INS
TEMPO 1809/1815 0400 FG OVC002
BECMG 1816/1818 18010KT 6000 BR VCSH QNH3004INS AUTOMATED SENSOR METWATCH 1723 TIL 1810 T16/1805Z T23/1819Z FN00085



MET'MAP, your aeronautical weather chart ! - Copyright ORBIFLY December 2007 - Disclaimer

ORBIFLY MET'MAP TEAM :

Programming & Development : Alexandra Zaïnal
Concept & original design : Baudouin d'Aumeries
Assistance for programming : Marc-Olivier Méhu
Technical & hardware support : Manuel Goepfert

Contact : metmap@orbifly.com




SOURCES & CREDITS :

   NOAA       Earth
Advisory